createdAt,value
2022-07-26T00:01:56.019Z,20.30
2022-07-26T00:04:29.066Z,20.30
2022-07-26T00:07:02.153Z,20.20
2022-07-26T00:09:35.106Z,20.20
2022-07-26T00:12:08.562Z,20.10
2022-07-26T00:14:41.757Z,20.10
2022-07-26T00:17:14.862Z,20.00
2022-07-26T00:25:11.821Z,19.90
2022-07-26T00:27:45.789Z,19.90
2022-07-26T00:30:18.815Z,19.90
2022-07-26T00:32:52.920Z,19.90
2022-07-26T00:35:25.941Z,19.80
2022-07-26T00:37:59.107Z,19.90
2022-07-26T00:40:32.366Z,19.80
2022-07-26T00:43:05.441Z,19.80
2022-07-26T00:45:38.602Z,19.80
2022-07-26T00:48:11.602Z,19.70
2022-07-26T00:50:45.886Z,19.60
2022-07-26T00:53:22.890Z,19.60
2022-07-26T00:55:55.913Z,19.60
2022-07-26T00:58:28.884Z,19.60
2022-07-26T01:01:02.029Z,19.50
2022-07-26T01:03:38.387Z,19.50
2022-07-26T01:06:12.777Z,19.50
2022-07-26T01:08:45.740Z,19.40
2022-07-26T01:11:18.889Z,19.40
2022-07-26T01:13:52.070Z,19.40
2022-07-26T01:16:25.757Z,19.30
2022-07-26T01:18:58.757Z,19.30
2022-07-26T01:21:33.040Z,19.20
2022-07-26T01:24:07.819Z,19.20
2022-07-26T01:26:41.142Z,19.20
2022-07-26T01:29:14.084Z,19.10
2022-07-26T01:31:47.235Z,19.10
2022-07-26T01:34:20.297Z,19.10
2022-07-26T01:36:55.495Z,18.90
2022-07-26T01:39:29.057Z,18.90
2022-07-26T01:42:02.040Z,18.80
2022-07-26T01:44:34.935Z,18.80
2022-07-26T01:47:08.201Z,18.80
2022-07-26T01:49:41.097Z,18.80
2022-07-26T01:52:14.142Z,18.80
2022-07-26T01:54:46.967Z,18.80
2022-07-26T01:57:20.028Z,18.80
2022-07-26T01:59:53.107Z,18.80
2022-07-26T02:02:26.335Z,18.80
2022-07-26T02:04:59.708Z,18.80
2022-07-26T02:07:37.886Z,18.60
2022-07-26T02:10:12.738Z,18.50
2022-07-26T07:27:36.019Z,20.00
2022-07-26T07:30:11.012Z,20.00
2022-07-26T07:32:44.181Z,20.20
2022-07-26T07:35:17.625Z,20.40
2022-07-26T07:37:54.151Z,20.50
2022-07-26T07:40:27.338Z,20.60
2022-07-26T07:43:03.370Z,20.70
2022-07-26T07:45:36.369Z,20.80
2022-07-26T07:48:09.497Z,20.90
2022-07-26T07:50:42.570Z,21.00
2022-07-26T07:53:15.614Z,21.10
2022-07-26T07:55:48.837Z,21.30
2022-07-26T07:58:21.770Z,21.30
2022-07-26T08:00:54.892Z,21.30
2022-07-26T08:03:38.816Z,21.30
2022-07-26T08:06:12.466Z,21.40
2022-07-26T08:08:45.483Z,21.50
2022-07-26T08:11:21.758Z,21.60
2022-07-26T08:13:54.839Z,21.70
2022-07-26T08:16:28.239Z,21.90
2022-07-26T08:19:01.342Z,22.10
2022-07-26T08:21:35.421Z,22.30
2022-07-26T08:24:08.949Z,22.40
2022-07-26T08:26:41.965Z,22.40
2022-07-26T08:29:15.276Z,22.50
2022-07-26T08:31:50.560Z,22.50
2022-07-26T08:34:23.635Z,22.80
2022-07-26T08:37:15.855Z,23.00
2022-07-26T08:39:49.850Z,23.30
2022-07-26T08:42:23.287Z,23.20
2022-07-26T08:44:56.219Z,23.30
2022-07-26T08:47:40.009Z,23.20
2022-07-26T08:50:20.279Z,23.20
2022-07-26T08:52:59.649Z,23.50
2022-07-26T08:56:04.261Z,23.80
2022-07-26T08:58:34.482Z,24.00
2022-07-26T09:01:09.469Z,24.20
2022-07-26T09:03:44.454Z,24.30
2022-07-26T09:06:22.845Z,24.60
2022-07-26T09:09:13.258Z,24.70
2022-07-26T09:11:46.141Z,24.90
2022-07-26T09:14:19.170Z,25.10
2022-07-26T09:16:59.862Z,25.10
2022-07-26T09:19:33.258Z,25.10
2022-07-26T09:22:23.522Z,25.30
2022-07-26T09:24:56.669Z,25.30
2022-07-26T09:27:36.894Z,25.50
2022-07-26T09:30:10.704Z,25.80
2022-07-26T09:33:07.022Z,26.00
2022-07-26T09:35:51.190Z,26.10
2022-07-26T09:38:25.215Z,26.10
2022-07-26T09:40:58.519Z,25.90
2022-07-26T09:43:37.817Z,25.70
2022-07-26T09:46:12.341Z,25.60
2022-07-26T09:49:09.386Z,25.70
2022-07-26T09:51:44.740Z,25.80
2022-07-26T09:54:29.592Z,26.00
2022-07-26T09:57:03.382Z,26.40
2022-07-26T09:59:39.838Z,26.40
2022-07-26T10:02:14.161Z,26.40
2022-07-26T10:04:47.122Z,26.50
2022-07-26T10:07:20.656Z,26.50
2022-07-26T10:10:00.699Z,26.70
2022-07-26T10:12:35.117Z,26.80
2022-07-26T10:15:37.184Z,26.70
2022-07-26T10:18:31.256Z,26.90
2022-07-26T10:26:47.514Z,27.30
2022-07-26T10:29:26.463Z,26.90
2022-07-26T10:32:06.842Z,26.60
2022-07-26T10:34:40.595Z,26.30
2022-07-26T10:37:23.349Z,26.10
2022-07-26T10:40:18.347Z,25.80
2022-07-26T10:42:51.444Z,25.50
2022-07-26T10:45:24.513Z,25.30
2022-07-26T10:48:24.955Z,25.20
2022-07-26T10:50:59.218Z,25.10
2022-07-26T10:53:34.731Z,25.10
2022-07-26T10:56:07.625Z,24.90
2022-07-26T10:58:44.193Z,24.70
2022-07-26T11:01:17.252Z,24.50
2022-07-26T11:03:50.469Z,24.50
2022-07-26T11:06:28.134Z,24.40
2022-07-26T11:09:10.668Z,24.40
2022-07-26T11:11:47.052Z,24.30
2022-07-26T11:14:20.494Z,24.30
2022-07-26T11:16:53.426Z,24.20
2022-07-26T11:19:27.436Z,24.20
2022-07-26T11:22:00.999Z,24.20
2022-07-26T11:24:41.037Z,24.20
2022-07-26T11:27:14.180Z,24.10
2022-07-26T11:29:50.106Z,24.10
2022-07-26T11:32:25.239Z,24.20
2022-07-26T11:35:05.433Z,24.20
2022-07-26T11:37:38.413Z,24.20
2022-07-26T11:40:12.030Z,24.20
2022-07-26T11:42:45.244Z,24.30
2022-07-26T11:45:19.530Z,24.40
2022-07-26T11:47:58.632Z,24.40
2022-07-26T11:50:33.078Z,24.40
2022-07-26T11:53:21.247Z,24.40
2022-07-26T11:55:54.418Z,24.30
2022-07-26T11:58:27.355Z,24.30
2022-07-26T12:01:00.503Z,24.30
2022-07-26T12:03:37.808Z,24.40
2022-07-26T12:06:17.553Z,24.50
2022-07-26T12:08:56.109Z,24.40
2022-07-26T12:11:38.796Z,24.40
2022-07-26T12:14:16.520Z,24.40
2022-07-26T12:16:51.626Z,24.30
2022-07-26T12:19:27.797Z,24.30
2022-07-26T12:22:12.040Z,24.30
2022-07-26T12:24:51.833Z,24.30
2022-07-26T12:27:30.467Z,24.30
2022-07-26T12:30:03.389Z,24.40
2022-07-26T12:32:39.162Z,24.30
2022-07-26T12:35:14.216Z,24.40
2022-07-26T12:37:47.166Z,24.40
2022-07-26T12:40:22.322Z,24.40
2022-07-26T12:43:02.822Z,24.40
2022-07-26T12:45:38.072Z,24.40
2022-07-26T12:51:52.320Z,24.20
2022-07-26T12:54:29.424Z,24.20
2022-07-26T12:57:02.602Z,24.30
2022-07-26T12:59:38.529Z,24.30
2022-07-26T13:02:32.870Z,24.30
2022-07-26T13:06:17.120Z,24.50
2022-07-26T13:09:36.560Z,24.60
2022-07-26T13:12:29.728Z,24.80
2022-07-26T13:15:22.965Z,25.00
2022-07-26T13:18:28.173Z,25.10
2022-07-26T13:21:21.320Z,25.20
2022-07-26T13:24:14.798Z,25.10
2022-07-26T13:26:49.786Z,25.20
2022-07-26T13:29:23.340Z,25.10
2022-07-26T13:31:57.369Z,25.10
2022-07-26T13:34:34.856Z,25.10
2022-07-26T13:37:08.710Z,25.10
2022-07-26T13:39:41.890Z,25.10
2022-07-26T13:42:17.050Z,25.20
2022-07-26T13:44:49.948Z,25.30
2022-07-26T13:47:22.918Z,25.30
2022-07-26T13:49:55.812Z,25.40
2022-07-26T13:52:29.225Z,25.40
2022-07-26T13:55:02.333Z,25.50
2022-07-26T13:57:47.998Z,25.50
2022-07-26T14:00:29.807Z,25.50
2022-07-26T14:03:02.968Z,25.50
2022-07-26T14:05:36.131Z,25.40
2022-07-26T14:08:09.067Z,25.40
2022-07-26T14:10:42.386Z,25.40
2022-07-26T14:13:15.313Z,25.40
2022-07-26T14:15:48.317Z,25.40
2022-07-26T14:18:21.254Z,25.40
2022-07-26T14:20:54.274Z,25.30
2022-07-26T14:23:27.178Z,25.30
2022-07-26T14:26:00.298Z,25.30
2022-07-26T14:28:33.512Z,25.30
2022-07-26T14:31:06.704Z,25.30
2022-07-26T14:33:39.816Z,25.30
2022-07-26T14:36:14.706Z,25.20
2022-07-26T14:38:49.663Z,25.30
2022-07-26T14:41:22.720Z,25.30
2022-07-26T14:43:55.963Z,25.30
2022-07-26T14:46:29.225Z,25.30
2022-07-26T14:49:02.241Z,25.30
2022-07-26T14:51:36.778Z,25.20
2022-07-26T14:54:12.441Z,25.20
2022-07-26T14:56:45.776Z,25.10
2022-07-26T14:59:18.754Z,25.10
2022-07-26T15:01:51.849Z,25.20
2022-07-26T15:04:24.965Z,25.20
2022-07-26T15:06:57.943Z,25.30
2022-07-26T15:09:30.898Z,25.30
2022-07-26T15:12:04.099Z,25.30
2022-07-26T15:14:37.830Z,25.20
2022-07-26T15:17:11.081Z,25.10
2022-07-26T15:19:44.237Z,25.10
2022-07-26T15:22:17.351Z,25.10
2022-07-26T15:24:50.244Z,25.10
2022-07-26T15:27:23.302Z,25.10
2022-07-26T15:30:01.065Z,25.00
2022-07-26T15:32:37.424Z,24.90
2022-07-26T15:35:14.466Z,24.80
2022-07-26T15:37:48.179Z,24.70
2022-07-26T15:40:21.408Z,24.60
2022-07-26T15:42:54.446Z,24.60
2022-07-26T15:45:30.091Z,24.60
2022-07-26T15:48:14.985Z,24.50
2022-07-26T15:50:49.605Z,24.40
2022-07-26T15:53:22.657Z,24.40
2022-07-26T15:55:56.333Z,24.40
2022-07-26T15:58:29.979Z,24.40
2022-07-26T16:01:06.220Z,24.50
2022-07-26T16:03:39.439Z,24.40
2022-07-26T16:06:12.386Z,24.40
2022-07-26T16:09:05.950Z,24.40
2022-07-26T16:11:38.396Z,24.40
2022-07-26T16:14:11.313Z,24.40
2022-07-26T16:16:45.525Z,24.40
2022-07-26T16:19:18.624Z,24.40
2022-07-26T16:21:51.626Z,24.30
2022-07-26T16:24:25.605Z,24.20
2022-07-26T16:26:58.797Z,24.20
2022-07-26T16:29:31.832Z,24.10
2022-07-26T16:32:05.271Z,24.10
2022-07-26T16:34:38.645Z,24.10
2022-07-26T16:37:11.718Z,24.10
2022-07-26T16:39:44.619Z,24.20
2022-07-26T16:42:20.646Z,24.10
2022-07-26T16:44:53.691Z,24.00
2022-07-26T16:47:26.721Z,23.90
2022-07-26T16:49:59.810Z,23.90
2022-07-26T16:52:32.928Z,23.80
2022-07-26T16:55:10.695Z,23.80
2022-07-26T16:57:43.732Z,23.80
2022-07-26T17:00:18.911Z,23.70
2022-07-26T17:02:52.102Z,23.60
2022-07-26T17:05:25.041Z,23.50
2022-07-26T17:08:00.114Z,23.40
2022-07-26T17:10:33.334Z,23.40
2022-07-26T17:13:06.966Z,23.30
2022-07-26T17:15:40.143Z,23.20
2022-07-26T17:18:13.959Z,23.20
2022-07-26T17:20:47.085Z,23.10
2022-07-26T17:23:20.297Z,23.10
2022-07-26T17:25:53.410Z,23.10
2022-07-26T17:28:26.478Z,23.00
2022-07-26T17:30:59.433Z,23.00
2022-07-26T17:33:32.710Z,23.00
2022-07-26T17:36:22.759Z,22.90
2022-07-26T17:38:56.818Z,22.90
2022-07-26T17:41:33.126Z,22.90
2022-07-26T17:44:06.700Z,22.90
2022-07-26T17:46:39.799Z,22.90
2022-07-26T17:49:13.174Z,22.90
2022-07-26T17:51:46.490Z,22.90
2022-07-26T17:54:19.506Z,22.90
2022-07-26T17:56:54.305Z,22.90
2022-07-26T17:59:27.531Z,22.80
2022-07-26T18:02:00.630Z,22.80
2022-07-26T18:04:34.919Z,22.80
2022-07-26T18:07:08.098Z,22.80
2022-07-26T18:09:41.230Z,22.80
2022-07-26T18:12:14.554Z,22.80
2022-07-26T18:14:47.633Z,22.80
2022-07-26T18:17:20.693Z,22.80
2022-07-26T18:19:53.986Z,22.70
2022-07-26T18:22:27.288Z,22.70
2022-07-26T18:25:00.326Z,22.70
2022-07-26T18:27:33.653Z,22.70
2022-07-26T18:30:07.482Z,22.60
2022-07-26T18:32:40.987Z,22.60
2022-07-26T18:35:14.591Z,22.50
2022-07-26T18:37:49.094Z,22.40
2022-07-26T18:40:25.017Z,22.40
2022-07-26T18:42:58.684Z,22.30
2022-07-26T18:45:36.049Z,22.30
2022-07-26T18:48:09.628Z,22.30
2022-07-26T18:50:44.110Z,22.20
2022-07-26T18:53:20.612Z,22.20
2022-07-26T18:55:54.378Z,22.20
2022-07-26T18:58:29.622Z,22.10
2022-07-26T19:01:05.129Z,22.10
2022-07-26T19:03:40.282Z,22.10
2022-07-26T19:06:15.486Z,22.10
2022-07-26T19:09:04.360Z,22.10
2022-07-26T19:11:37.660Z,22.10
2022-07-26T19:14:11.256Z,22.10
2022-07-26T19:16:44.563Z,22.10
2022-07-26T19:19:17.824Z,22.00
2022-07-26T19:21:51.224Z,22.00
2022-07-26T19:24:24.033Z,22.00
2022-07-26T19:26:56.798Z,21.90
2022-07-26T19:29:31.305Z,21.90
2022-07-26T19:32:05.264Z,21.90
2022-07-26T19:34:38.241Z,21.90
2022-07-26T19:37:11.216Z,21.80
2022-07-26T19:39:44.106Z,21.90
2022-07-26T19:42:18.463Z,21.80
2022-07-26T19:44:51.497Z,21.80
2022-07-26T19:47:24.319Z,21.80
2022-07-26T19:49:58.108Z,21.70
2022-07-26T19:52:30.841Z,21.70
2022-07-26T19:55:04.021Z,21.70
2022-07-26T19:57:37.389Z,21.70
2022-07-26T20:00:11.500Z,21.70
2022-07-26T20:02:44.367Z,21.60
2022-07-26T20:05:17.705Z,21.60
2022-07-26T20:07:51.279Z,21.60
2022-07-26T20:10:28.569Z,21.50
2022-07-26T20:13:04.860Z,21.50
2022-07-26T20:15:37.863Z,21.50
2022-07-26T20:18:10.901Z,21.40
2022-07-26T20:20:44.167Z,21.40
2022-07-26T20:23:17.290Z,21.30
2022-07-26T20:25:50.624Z,21.20
2022-07-26T20:28:23.588Z,21.10
2022-07-26T20:30:56.497Z,21.00
2022-07-26T20:33:29.474Z,21.00
2022-07-26T20:36:02.317Z,20.90
2022-07-26T20:38:35.477Z,20.90
2022-07-26T20:41:08.483Z,20.80
2022-07-26T20:43:41.437Z,20.70
2022-07-26T20:46:14.332Z,20.70
2022-07-26T20:48:47.405Z,20.50
2022-07-26T20:51:20.283Z,20.50
2022-07-26T20:53:53.232Z,20.40
2022-07-26T20:56:27.104Z,20.30
2022-07-26T20:59:03.208Z,20.30
2022-07-26T21:01:36.091Z,20.30
2022-07-26T21:04:16.136Z,20.20
2022-07-26T21:06:49.418Z,20.20
2022-07-26T21:09:22.488Z,20.30
2022-07-26T21:11:55.438Z,20.20
2022-07-26T21:14:28.592Z,20.20
2022-07-26T21:17:01.534Z,20.10
2022-07-26T21:19:34.358Z,20.10
2022-07-26T21:22:07.643Z,20.10
2022-07-26T21:24:42.585Z,20.00
2022-07-26T21:27:15.364Z,20.00
2022-07-26T21:29:48.170Z,20.00
2022-07-26T21:32:21.488Z,19.90
2022-07-26T21:34:54.322Z,19.90
2022-07-26T21:37:27.326Z,19.90
2022-07-26T21:40:00.692Z,19.90
2022-07-26T21:42:35.319Z,19.90
2022-07-26T21:45:10.346Z,19.90
2022-07-26T21:47:43.075Z,19.80
2022-07-26T21:50:15.898Z,19.80
2022-07-26T21:52:48.806Z,19.80
2022-07-26T21:55:21.620Z,19.80
2022-07-26T21:57:54.333Z,19.70
2022-07-26T22:00:27.197Z,19.70
2022-07-26T22:02:59.997Z,19.70
2022-07-26T22:05:37.991Z,19.60
2022-07-26T22:08:13.189Z,19.60
2022-07-26T22:10:46.065Z,19.70
2022-07-26T22:13:19.674Z,19.60
2022-07-26T22:15:52.858Z,19.70
2022-07-26T22:18:26.069Z,19.70
2022-07-26T22:20:59.197Z,19.70
2022-07-26T22:23:32.691Z,19.70
2022-07-26T22:26:05.917Z,19.70
2022-07-26T22:28:38.749Z,19.60
2022-07-26T22:31:11.498Z,19.60
2022-07-26T22:33:44.713Z,19.60
2022-07-26T22:36:17.685Z,19.60
2022-07-26T22:38:50.572Z,19.60
2022-07-26T22:41:23.303Z,19.50
2022-07-26T22:43:56.192Z,19.40
2022-07-26T22:46:29.568Z,19.40
2022-07-26T22:49:02.616Z,19.40
2022-07-26T22:51:35.524Z,19.40
2022-07-26T22:54:09.077Z,19.30
2022-07-26T22:56:42.470Z,19.30
2022-07-26T22:59:15.832Z,19.30
2022-07-26T23:01:49.236Z,19.30
2022-07-26T23:04:21.986Z,19.30
2022-07-26T23:06:55.177Z,19.30
2022-07-26T23:09:27.972Z,19.20
2022-07-26T23:12:01.042Z,19.20
2022-07-26T23:14:33.835Z,19.10
2022-07-26T23:17:06.786Z,19.10
2022-07-26T23:19:39.686Z,19.00
2022-07-26T23:22:12.683Z,19.00
2022-07-26T23:24:47.726Z,19.00
2022-07-26T23:27:20.497Z,19.00
2022-07-26T23:29:53.491Z,19.00
2022-07-26T23:32:26.416Z,19.00
2022-07-26T23:34:59.137Z,19.10
2022-07-26T23:37:32.892Z,19.10
2022-07-26T23:40:06.333Z,19.10
2022-07-26T23:42:39.229Z,19.10
2022-07-26T23:45:11.954Z,19.10
2022-07-26T23:47:44.742Z,19.10
2022-07-26T23:50:18.851Z,19.10
2022-07-26T23:52:51.841Z,19.20
2022-07-26T23:55:24.565Z,19.10
2022-07-26T23:57:57.527Z,19.20
